sensor_id;sensor_type;location;lat;lon;timestamp;P1;durP1;ratioP1;P2;durP2;ratioP2
39778;SDS011;25454;49.878;8.618;2022-09-20T00:04:12;9.67;;;2.23;;
39778;SDS011;25454;49.878;8.618;2022-09-20T00:09:12;6.33;;;1.93;;
39778;SDS011;25454;49.878;8.618;2022-09-20T00:14:13;5.23;;;2.03;;
39778;SDS011;25454;49.878;8.618;2022-09-20T00:19:16;5.00;;;2.13;;
39778;SDS011;25454;49.878;8.618;2022-09-20T00:24:21;3.67;;;1.73;;
39778;SDS011;25454;49.878;8.618;2022-09-20T00:29:21;9.60;;;2.20;;
39778;SDS011;25454;49.878;8.618;2022-09-20T00:34:22;5.70;;;2.30;;
39778;SDS011;25454;49.878;8.618;2022-09-20T00:39:41;5.77;;;1.87;;
39778;SDS011;25454;49.878;8.618;2022-09-20T00:44:55;3.47;;;2.20;;
39778;SDS011;25454;49.878;8.618;2022-09-20T00:50:07;5.27;;;2.10;;
39778;SDS011;25454;49.878;8.618;2022-09-20T00:55:33;6.57;;;2.03;;
39778;SDS011;25454;49.878;8.618;2022-09-20T01:00:36;4.07;;;2.00;;
39778;SDS011;25454;49.878;8.618;2022-09-20T01:05:37;5.23;;;2.10;;
39778;SDS011;25454;49.878;8.618;2022-09-20T01:10:40;4.57;;;2.13;;
39778;SDS011;25454;49.878;8.618;2022-09-20T01:15:44;5.87;;;2.30;;
39778;SDS011;25454;49.878;8.618;2022-09-20T01:20:47;8.60;;;2.70;;
39778;SDS011;25454;49.878;8.618;2022-09-20T01:31:32;5.03;;;2.50;;
39778;SDS011;25454;49.878;8.618;2022-09-20T01:37:17;4.43;;;2.10;;
39778;SDS011;25454;49.878;8.618;2022-09-20T01:42:10;7.33;;;2.70;;
39778;SDS011;25454;49.878;8.618;2022-09-20T01:52:33;5.57;;;2.23;;
39778;SDS011;25454;49.878;8.618;2022-09-20T01:58:01;7.00;;;2.43;;
39778;SDS011;25454;49.878;8.618;2022-09-20T02:41:15;7.27;;;2.30;;
39778;SDS011;25454;49.878;8.618;2022-09-20T02:46:44;5.90;;;2.73;;
39778;SDS011;25454;49.878;8.618;2022-09-20T02:51:52;8.93;;;2.90;;
39778;SDS011;25454;49.878;8.618;2022-09-20T02:57:22;8.93;;;3.17;;
39778;SDS011;25454;49.878;8.618;2022-09-20T03:29:11;4.50;;;2.97;;
39778;SDS011;25454;49.878;8.618;2022-09-20T03:40:14;8.30;;;3.73;;
39778;SDS011;25454;49.878;8.618;2022-09-20T03:45:31;8.73;;;3.83;;
39778;SDS011;25454;49.878;8.618;2022-09-20T04:07:34;7.60;;;4.20;;
39778;SDS011;25454;49.878;8.618;2022-09-20T04:12:57;8.00;;;4.13;;
39778;SDS011;25454;49.878;8.618;2022-09-20T04:23:58;8.27;;;4.03;;
39778;SDS011;25454;49.878;8.618;2022-09-20T04:34:39;7.13;;;3.97;;
39778;SDS011;25454;49.878;8.618;2022-09-20T04:40:25;11.73;;;4.60;;
39778;SDS011;25454;49.878;8.618;2022-09-20T04:51:25;7.97;;;4.40;;
39778;SDS011;25454;49.878;8.618;2022-09-20T05:02:14;14.07;;;5.27;;
39778;SDS011;25454;49.878;8.618;2022-09-20T05:07:39;12.50;;;5.03;;
39778;SDS011;25454;49.878;8.618;2022-09-20T05:28:59;14.27;;;5.83;;
39778;SDS011;25454;49.878;8.618;2022-09-20T05:34:32;15.83;;;5.83;;
39778;SDS011;25454;49.878;8.618;2022-09-20T05:50:58;5.87;;;3.90;;
39778;SDS011;25454;49.878;8.618;2022-09-20T05:56:28;9.40;;;4.60;;
39778;SDS011;25454;49.878;8.618;2022-09-20T06:13:33;11.00;;;4.30;;
39778;SDS011;25454;49.878;8.618;2022-09-20T06:18:46;9.10;;;3.77;;
39778;SDS011;25454;49.878;8.618;2022-09-20T06:23:49;8.73;;;3.87;;
39778;SDS011;25454;49.878;8.618;2022-09-20T06:28:59;10.70;;;3.67;;
39778;SDS011;25454;49.878;8.618;2022-09-20T06:34:05;8.73;;;4.80;;
39778;SDS011;25454;49.878;8.618;2022-09-20T06:39:21;7.80;;;4.80;;
39778;SDS011;25454;49.878;8.618;2022-09-20T06:45:03;6.97;;;3.43;;
39778;SDS011;25454;49.878;8.618;2022-09-20T06:50:04;10.97;;;3.70;;
39778;SDS011;25454;49.878;8.618;2022-09-20T06:55:06;7.50;;;3.50;;
39778;SDS011;25454;49.878;8.618;2022-09-20T07:00:13;9.43;;;3.80;;
39778;SDS011;25454;49.878;8.618;2022-09-20T07:05:15;9.40;;;3.63;;
39778;SDS011;25454;49.878;8.618;2022-09-20T07:10:16;7.77;;;3.43;;
39778;SDS011;25454;49.878;8.618;2022-09-20T07:15:17;9.40;;;3.50;;
39778;SDS011;25454;49.878;8.618;2022-09-20T07:20:21;8.97;;;3.33;;
39778;SDS011;25454;49.878;8.618;2022-09-20T07:25:22;7.67;;;3.27;;
39778;SDS011;25454;49.878;8.618;2022-09-20T07:30:26;11.70;;;2.80;;
39778;SDS011;25454;49.878;8.618;2022-09-20T07:35:26;7.87;;;3.17;;
39778;SDS011;25454;49.878;8.618;2022-09-20T07:40:27;7.83;;;3.00;;
39778;SDS011;25454;49.878;8.618;2022-09-20T07:45:27;18.23;;;3.33;;
39778;SDS011;25454;49.878;8.618;2022-09-20T07:50:30;6.13;;;2.63;;
39778;SDS011;25454;49.878;8.618;2022-09-20T07:55:31;5.30;;;2.10;;
39778;SDS011;25454;49.878;8.618;2022-09-20T08:00:33;10.77;;;3.00;;
39778;SDS011;25454;49.878;8.618;2022-09-20T08:05:40;7.80;;;2.47;;
39778;SDS011;25454;49.878;8.618;2022-09-20T08:10:41;5.73;;;2.90;;
39778;SDS011;25454;49.878;8.618;2022-09-20T08:15:42;7.33;;;2.97;;
39778;SDS011;25454;49.878;8.618;2022-09-20T08:20:42;7.13;;;3.10;;
39778;SDS011;25454;49.878;8.618;2022-09-20T08:25:43;8.03;;;2.80;;
39778;SDS011;25454;49.878;8.618;2022-09-20T08:30:43;8.97;;;3.50;;
39778;SDS011;25454;49.878;8.618;2022-09-20T08:35:47;7.53;;;3.67;;
39778;SDS011;25454;49.878;8.618;2022-09-20T08:40:48;9.97;;;3.80;;
39778;SDS011;25454;49.878;8.618;2022-09-20T08:45:49;9.57;;;4.30;;
39778;SDS011;25454;49.878;8.618;2022-09-20T08:50:49;7.77;;;3.80;;
39778;SDS011;25454;49.878;8.618;2022-09-20T08:55:50;8.03;;;3.53;;
39778;SDS011;25454;49.878;8.618;2022-09-20T09:00:51;8.33;;;3.87;;
39778;SDS011;25454;49.878;8.618;2022-09-20T09:05:55;6.63;;;3.17;;
39778;SDS011;25454;49.878;8.618;2022-09-20T09:10:58;10.73;;;3.70;;
39778;SDS011;25454;49.878;8.618;2022-09-20T09:16:08;7.57;;;3.03;;
39778;SDS011;25454;49.878;8.618;2022-09-20T09:21:21;5.33;;;2.40;;
39778;SDS011;25454;49.878;8.618;2022-09-20T09:26:26;4.20;;;1.93;;
39778;SDS011;25454;49.878;8.618;2022-09-20T09:31:27;3.83;;;2.40;;
39778;SDS011;25454;49.878;8.618;2022-09-20T09:36:31;5.93;;;2.30;;
39778;SDS011;25454;49.878;8.618;2022-09-20T09:41:32;6.77;;;2.37;;
39778;SDS011;25454;49.878;8.618;2022-09-20T09:46:35;4.83;;;2.33;;
39778;SDS011;25454;49.878;8.618;2022-09-20T09:51:38;5.10;;;2.67;;
39778;SDS011;25454;49.878;8.618;2022-09-20T09:56:53;7.23;;;2.37;;
39778;SDS011;25454;49.878;8.618;2022-09-20T10:07:18;8.67;;;2.43;;
39778;SDS011;25454;49.878;8.618;2022-09-20T10:12:34;3.83;;;1.70;;
39778;SDS011;25454;49.878;8.618;2022-09-20T10:39:35;6.97;;;2.60;;
39778;SDS011;25454;49.878;8.618;2022-09-20T10:44:53;5.00;;;2.40;;
39778;SDS011;25454;49.878;8.618;2022-09-20T10:50:40;4.63;;;1.90;;
39778;SDS011;25454;49.878;8.618;2022-09-20T11:01:36;4.27;;;2.27;;
39778;SDS011;25454;49.878;8.618;2022-09-20T11:06:51;6.97;;;2.20;;
39778;SDS011;25454;49.878;8.618;2022-09-20T11:12:09;6.30;;;1.83;;
39778;SDS011;25454;49.878;8.618;2022-09-20T11:17:25;3.20;;;1.77;;
39778;SDS011;25454;49.878;8.618;2022-09-20T11:22:45;7.00;;;2.40;;
39778;SDS011;25454;49.878;8.618;2022-09-20T11:33:28;7.33;;;3.47;;
39778;SDS011;25454;49.878;8.618;2022-09-20T11:38:51;6.37;;;2.43;;
39778;SDS011;25454;49.878;8.618;2022-09-20T11:44:06;4.50;;;1.90;;
39778;SDS011;25454;49.878;8.618;2022-09-20T11:49:13;2.50;;;1.93;;
39778;SDS011;25454;49.878;8.618;2022-09-20T11:59:41;4.33;;;1.87;;
39778;SDS011;25454;49.878;8.618;2022-09-20T12:04:50;4.20;;;1.90;;
39778;SDS011;25454;49.878;8.618;2022-09-20T12:09:56;2.67;;;1.47;;
39778;SDS011;25454;49.878;8.618;2022-09-20T12:15:00;5.33;;;2.07;;
39778;SDS011;25454;49.878;8.618;2022-09-20T12:20:55;3.07;;;1.70;;
39778;SDS011;25454;49.878;8.618;2022-09-20T12:25:36;3.50;;;1.50;;
39778;SDS011;25454;49.878;8.618;2022-09-20T12:30:41;6.30;;;1.77;;
39778;SDS011;25454;49.878;8.618;2022-09-20T12:35:52;4.40;;;1.90;;
39778;SDS011;25454;49.878;8.618;2022-09-20T12:45:59;4.10;;;1.83;;
39778;SDS011;25454;49.878;8.618;2022-09-20T12:51:02;4.87;;;1.57;;
39778;SDS011;25454;49.878;8.618;2022-09-20T12:56:41;2.27;;;1.47;;
39778;SDS011;25454;49.878;8.618;2022-09-20T13:01:45;2.67;;;1.53;;
39778;SDS011;25454;49.878;8.618;2022-09-20T13:06:46;3.80;;;1.53;;
39778;SDS011;25454;49.878;8.618;2022-09-20T13:11:57;2.70;;;1.53;;
39778;SDS011;25454;49.878;8.618;2022-09-20T13:17:02;3.53;;;1.70;;
39778;SDS011;25454;49.878;8.618;2022-09-20T13:22:28;4.30;;;1.70;;
39778;SDS011;25454;49.878;8.618;2022-09-20T13:33:23;4.93;;;1.93;;
39778;SDS011;25454;49.878;8.618;2022-09-20T13:38:25;4.83;;;1.93;;
39778;SDS011;25454;49.878;8.618;2022-09-20T13:43:37;5.50;;;1.70;;
39778;SDS011;25454;49.878;8.618;2022-09-20T13:48:41;4.47;;;1.80;;
39778;SDS011;25454;49.878;8.618;2022-09-20T13:53:46;3.57;;;2.00;;
39778;SDS011;25454;49.878;8.618;2022-09-20T13:58:46;4.77;;;2.23;;
39778;SDS011;25454;49.878;8.618;2022-09-20T14:03:48;4.97;;;2.30;;
39778;SDS011;25454;49.878;8.618;2022-09-20T14:08:49;6.50;;;2.23;;
39778;SDS011;25454;49.878;8.618;2022-09-20T14:13:51;5.50;;;2.50;;
39778;SDS011;25454;49.878;8.618;2022-09-20T14:18:54;5.67;;;2.47;;
39778;SDS011;25454;49.878;8.618;2022-09-20T14:23:57;4.67;;;2.23;;
39778;SDS011;25454;49.878;8.618;2022-09-20T14:34:40;3.47;;;1.73;;
39778;SDS011;25454;49.878;8.618;2022-09-20T14:39:57;4.33;;;1.70;;
39778;SDS011;25454;49.878;8.618;2022-09-20T14:45:00;3.27;;;1.70;;
39778;SDS011;25454;49.878;8.618;2022-09-20T14:51:07;6.30;;;2.07;;
39778;SDS011;25454;49.878;8.618;2022-09-20T14:55:38;2.57;;;1.60;;
39778;SDS011;25454;49.878;8.618;2022-09-20T15:00:57;5.77;;;1.87;;
39778;SDS011;25454;49.878;8.618;2022-09-20T15:06:03;3.30;;;2.07;;
39778;SDS011;25454;49.878;8.618;2022-09-20T15:11:05;4.70;;;2.17;;
39778;SDS011;25454;49.878;8.618;2022-09-20T15:16:06;2.43;;;1.70;;
39778;SDS011;25454;49.878;8.618;2022-09-20T15:21:07;5.60;;;2.20;;
39778;SDS011;25454;49.878;8.618;2022-09-20T15:26:10;4.13;;;1.63;;
39778;SDS011;25454;49.878;8.618;2022-09-20T15:31:12;3.10;;;1.40;;
39778;SDS011;25454;49.878;8.618;2022-09-20T15:36:14;2.23;;;0.87;;
39778;SDS011;25454;49.878;8.618;2022-09-20T15:41:14;2.47;;;0.93;;
39778;SDS011;25454;49.878;8.618;2022-09-20T15:46:16;4.17;;;1.10;;
39778;SDS011;25454;49.878;8.618;2022-09-20T15:51:18;2.37;;;1.07;;
39778;SDS011;25454;49.878;8.618;2022-09-20T16:01:20;1.73;;;0.80;;
39778;SDS011;25454;49.878;8.618;2022-09-20T16:06:21;3.80;;;0.83;;
39778;SDS011;25454;49.878;8.618;2022-09-20T16:11:22;1.90;;;1.03;;
39778;SDS011;25454;49.878;8.618;2022-09-20T16:16:24;4.27;;;1.00;;
39778;SDS011;25454;49.878;8.618;2022-09-20T16:21:27;2.73;;;1.10;;
39778;SDS011;25454;49.878;8.618;2022-09-20T16:26:27;2.57;;;0.90;;
39778;SDS011;25454;49.878;8.618;2022-09-20T16:31:31;0.97;;;0.70;;
39778;SDS011;25454;49.878;8.618;2022-09-20T16:36:41;2.83;;;0.93;;
39778;SDS011;25454;49.878;8.618;2022-09-20T16:41:46;1.63;;;0.77;;
39778;SDS011;25454;49.878;8.618;2022-09-20T16:46:47;2.70;;;0.60;;
39778;SDS011;25454;49.878;8.618;2022-09-20T16:51:51;1.17;;;0.57;;
39778;SDS011;25454;49.878;8.618;2022-09-20T16:56:51;2.50;;;0.90;;
39778;SDS011;25454;49.878;8.618;2022-09-20T17:01:52;5.73;;;1.00;;
39778;SDS011;25454;49.878;8.618;2022-09-20T17:06:53;4.13;;;0.83;;
39778;SDS011;25454;49.878;8.618;2022-09-20T17:11:53;1.03;;;0.80;;
39778;SDS011;25454;49.878;8.618;2022-09-20T17:16:54;4.10;;;0.90;;
39778;SDS011;25454;49.878;8.618;2022-09-20T17:21:55;3.47;;;1.10;;
39778;SDS011;25454;49.878;8.618;2022-09-20T17:26:57;1.47;;;0.97;;
39778;SDS011;25454;49.878;8.618;2022-09-20T17:32:01;5.60;;;1.57;;
39778;SDS011;25454;49.878;8.618;2022-09-20T17:37:04;3.00;;;1.40;;
39778;SDS011;25454;49.878;8.618;2022-09-20T17:42:05;2.63;;;1.60;;
39778;SDS011;25454;49.878;8.618;2022-09-20T17:47:06;2.87;;;1.70;;
39778;SDS011;25454;49.878;8.618;2022-09-20T17:52:08;3.07;;;1.40;;
39778;SDS011;25454;49.878;8.618;2022-09-20T17:57:11;2.87;;;1.57;;
39778;SDS011;25454;49.878;8.618;2022-09-20T18:02:14;3.67;;;1.37;;
39778;SDS011;25454;49.878;8.618;2022-09-20T18:07:15;3.73;;;2.03;;
39778;SDS011;25454;49.878;8.618;2022-09-20T18:12:16;5.07;;;1.87;;
39778;SDS011;25454;49.878;8.618;2022-09-20T18:17:17;3.60;;;1.50;;
39778;SDS011;25454;49.878;8.618;2022-09-20T18:22:17;4.50;;;1.80;;
39778;SDS011;25454;49.878;8.618;2022-09-20T18:27:20;2.33;;;1.23;;
39778;SDS011;25454;49.878;8.618;2022-09-20T18:32:20;2.50;;;1.67;;
39778;SDS011;25454;49.878;8.618;2022-09-20T18:37:23;3.30;;;2.23;;
39778;SDS011;25454;49.878;8.618;2022-09-20T18:42:23;5.57;;;2.10;;
39778;SDS011;25454;49.878;8.618;2022-09-20T18:47:25;6.57;;;2.80;;
39778;SDS011;25454;49.878;8.618;2022-09-20T18:52:25;7.00;;;2.77;;
39778;SDS011;25454;49.878;8.618;2022-09-20T18:57:26;4.47;;;2.60;;
39778;SDS011;25454;49.878;8.618;2022-09-20T19:07:50;5.70;;;1.70;;
39778;SDS011;25454;49.878;8.618;2022-09-20T19:18:57;3.73;;;2.10;;
39778;SDS011;25454;49.878;8.618;2022-09-20T19:29:30;5.47;;;2.10;;
39778;SDS011;25454;49.878;8.618;2022-09-20T19:34:32;8.57;;;4.30;;
39778;SDS011;25454;49.878;8.618;2022-09-20T19:39:36;9.70;;;4.97;;
39778;SDS011;25454;49.878;8.618;2022-09-20T19:55:38;8.93;;;3.47;;
39778;SDS011;25454;49.878;8.618;2022-09-20T20:00:49;7.57;;;3.10;;
39778;SDS011;25454;49.878;8.618;2022-09-20T20:05:58;8.27;;;3.37;;
39778;SDS011;25454;49.878;8.618;2022-09-20T20:16:17;5.03;;;2.47;;
39778;SDS011;25454;49.878;8.618;2022-09-20T20:21:27;4.03;;;2.33;;
39778;SDS011;25454;49.878;8.618;2022-09-20T20:26:36;3.90;;;2.37;;
39778;SDS011;25454;49.878;8.618;2022-09-20T20:31:36;5.33;;;2.13;;
39778;SDS011;25454;49.878;8.618;2022-09-20T20:36:37;3.70;;;2.30;;
39778;SDS011;25454;49.878;8.618;2022-09-20T20:41:38;6.57;;;1.90;;
39778;SDS011;25454;49.878;8.618;2022-09-20T20:46:39;3.50;;;1.73;;
39778;SDS011;25454;49.878;8.618;2022-09-20T20:51:40;6.60;;;1.77;;
39778;SDS011;25454;49.878;8.618;2022-09-20T20:56:41;3.90;;;2.10;;
39778;SDS011;25454;49.878;8.618;2022-09-20T21:01:42;6.53;;;3.10;;
39778;SDS011;25454;49.878;8.618;2022-09-20T21:06:44;3.23;;;1.83;;
39778;SDS011;25454;49.878;8.618;2022-09-20T21:11:45;4.30;;;2.07;;
39778;SDS011;25454;49.878;8.618;2022-09-20T21:16:49;4.70;;;2.30;;
39778;SDS011;25454;49.878;8.618;2022-09-20T21:21:50;3.90;;;2.43;;
39778;SDS011;25454;49.878;8.618;2022-09-20T21:26:51;4.23;;;2.10;;
39778;SDS011;25454;49.878;8.618;2022-09-20T21:31:52;5.30;;;2.80;;
39778;SDS011;25454;49.878;8.618;2022-09-20T21:36:53;5.77;;;3.43;;
39778;SDS011;25454;49.878;8.618;2022-09-20T21:41:53;6.67;;;2.83;;
39778;SDS011;25454;49.878;8.618;2022-09-20T21:46:54;6.37;;;2.90;;
39778;SDS011;25454;49.878;8.618;2022-09-20T21:51:55;7.10;;;3.23;;
39778;SDS011;25454;49.878;8.618;2022-09-20T21:56:56;2.83;;;2.50;;
39778;SDS011;25454;49.878;8.618;2022-09-20T22:01:58;6.43;;;3.10;;
39778;SDS011;25454;49.878;8.618;2022-09-20T22:06:58;5.13;;;3.20;;
39778;SDS011;25454;49.878;8.618;2022-09-20T22:12:02;6.10;;;3.27;;
39778;SDS011;25454;49.878;8.618;2022-09-20T22:17:03;4.63;;;3.37;;
39778;SDS011;25454;49.878;8.618;2022-09-20T22:22:04;6.00;;;3.47;;
39778;SDS011;25454;49.878;8.618;2022-09-20T22:27:04;5.97;;;3.40;;
39778;SDS011;25454;49.878;8.618;2022-09-20T22:32:05;8.80;;;3.83;;
39778;SDS011;25454;49.878;8.618;2022-09-20T22:37:05;7.83;;;4.13;;
39778;SDS011;25454;49.878;8.618;2022-09-20T22:42:06;4.33;;;3.37;;
39778;SDS011;25454;49.878;8.618;2022-09-20T22:47:10;6.83;;;3.90;;
39778;SDS011;25454;49.878;8.618;2022-09-20T22:52:13;5.57;;;3.10;;
39778;SDS011;25454;49.878;8.618;2022-09-20T22:57:14;8.23;;;3.37;;
39778;SDS011;25454;49.878;8.618;2022-09-20T23:02:14;4.70;;;3.50;;
39778;SDS011;25454;49.878;8.618;2022-09-20T23:07:15;5.03;;;3.57;;
39778;SDS011;25454;49.878;8.618;2022-09-20T23:12:15;6.13;;;4.20;;
39778;SDS011;25454;49.878;8.618;2022-09-20T23:17:16;6.83;;;4.53;;
39778;SDS011;25454;49.878;8.618;2022-09-20T23:22:16;8.00;;;4.40;;
39778;SDS011;25454;49.878;8.618;2022-09-20T23:27:17;6.13;;;4.27;;
39778;SDS011;25454;49.878;8.618;2022-09-20T23:32:18;6.00;;;4.20;;
39778;SDS011;25454;49.878;8.618;2022-09-20T23:37:21;7.00;;;4.10;;
39778;SDS011;25454;49.878;8.618;2022-09-20T23:42:22;8.40;;;4.43;;
39778;SDS011;25454;49.878;8.618;2022-09-20T23:47:23;8.57;;;3.90;;
39778;SDS011;25454;49.878;8.618;2022-09-20T23:52:23;9.67;;;4.00;;
39778;SDS011;25454;49.878;8.618;2022-09-20T23:57:30;5.93;;;4.00;;
